sensor_id;sensor_type;location;lat;lon;timestamp;temperature;humidity
19755;DHT22;10036;47.812;9.274;2023-05-29T00:00:46;16.90;92.70
19755;DHT22;10036;47.812;9.274;2023-05-29T00:03:13;16.80;93.00
19755;DHT22;10036;47.812;9.274;2023-05-29T00:05:40;16.70;93.40
19755;DHT22;10036;47.812;9.274;2023-05-29T00:08:07;16.70;93.30
19755;DHT22;10036;47.812;9.274;2023-05-29T00:10:34;16.60;94.00
19755;DHT22;10036;47.812;9.274;2023-05-29T00:13:02;16.50;93.80
19755;DHT22;10036;47.812;9.274;2023-05-29T00:15:29;16.40;94.20
19755;DHT22;10036;47.812;9.274;2023-05-29T00:17:57;16.20;94.60
19755;DHT22;10036;47.812;9.274;2023-05-29T00:20:24;16.10;94.90
19755;DHT22;10036;47.812;9.274;2023-05-29T00:22:51;15.90;95.20
19755;DHT22;10036;47.812;9.274;2023-05-29T00:25:18;15.50;97.10
19755;DHT22;10036;47.812;9.274;2023-05-29T00:27:45;14.90;98.60
19755;DHT22;10036;47.812;9.274;2023-05-29T00:30:12;14.60;99.30
19755;DHT22;10036;47.812;9.274;2023-05-29T00:32:39;14.50;99.50
19755;DHT22;10036;47.812;9.274;2023-05-29T00:35:08;14.60;99.90
19755;DHT22;10036;47.812;9.274;2023-05-29T00:37:35;14.30;99.90
19755;DHT22;10036;47.812;9.274;2023-05-29T00:40:03;14.50;99.90
19755;DHT22;10036;47.812;9.274;2023-05-29T00:42:30;14.20;99.90
19755;DHT22;10036;47.812;9.274;2023-05-29T00:44:57;14.20;99.90
19755;DHT22;10036;47.812;9.274;2023-05-29T00:47:24;14.00;99.90
19755;DHT22;10036;47.812;9.274;2023-05-29T00:49:51;13.90;99.90
19755;DHT22;10036;47.812;9.274;2023-05-29T00:52:21;13.80;99.90
19755;DHT22;10036;47.812;9.274;2023-05-29T00:54:48;13.80;99.90
19755;DHT22;10036;47.812;9.274;2023-05-29T00:57:16;13.60;99.90
19755;DHT22;10036;47.812;9.274;2023-05-29T00:59:44;13.40;99.90
19755;DHT22;10036;47.812;9.274;2023-05-29T01:02:14;13.50;99.90
19755;DHT22;10036;47.812;9.274;2023-05-29T01:04:44;13.40;99.90
19755;DHT22;10036;47.812;9.274;2023-05-29T01:07:12;13.30;99.90
19755;DHT22;10036;47.812;9.274;2023-05-29T01:09:41;13.40;99.90
19755;DHT22;10036;47.812;9.274;2023-05-29T01:12:16;13.20;99.90
19755;DHT22;10036;47.812;9.274;2023-05-29T01:14:57;13.00;99.90
19755;DHT22;10036;47.812;9.274;2023-05-29T01:17:37;13.10;99.90
19755;DHT22;10036;47.812;9.274;2023-05-29T01:20:23;13.20;99.90
19755;DHT22;10036;47.812;9.274;2023-05-29T01:23:20;13.00;99.90
19755;DHT22;10036;47.812;9.274;2023-05-29T01:26:02;13.10;99.90
19755;DHT22;10036;47.812;9.274;2023-05-29T01:28:40;13.40;99.90
19755;DHT22;10036;47.812;9.274;2023-05-29T01:31:09;13.50;99.90
19755;DHT22;10036;47.812;9.274;2023-05-29T01:33:38;13.50;99.90
19755;DHT22;10036;47.812;9.274;2023-05-29T01:36:06;13.50;99.90
19755;DHT22;10036;47.812;9.274;2023-05-29T01:38:33;13.50;99.90
19755;DHT22;10036;47.812;9.274;2023-05-29T01:41:01;13.30;99.90
19755;DHT22;10036;47.812;9.274;2023-05-29T01:43:28;13.00;99.90
19755;DHT22;10036;47.812;9.274;2023-05-29T01:45:57;12.90;99.90
19755;DHT22;10036;47.812;9.274;2023-05-29T01:48:24;13.00;99.90
19755;DHT22;10036;47.812;9.274;2023-05-29T01:50:52;12.90;99.90
19755;DHT22;10036;47.812;9.274;2023-05-29T01:53:18;13.00;99.90
19755;DHT22;10036;47.812;9.274;2023-05-29T01:55:46;12.90;99.90
19755;DHT22;10036;47.812;9.274;2023-05-29T01:58:14;12.70;99.90
19755;DHT22;10036;47.812;9.274;2023-05-29T02:00:41;12.80;99.90
19755;DHT22;10036;47.812;9.274;2023-05-29T02:03:09;12.60;99.90
19755;DHT22;10036;47.812;9.274;2023-05-29T02:05:36;12.70;99.90
19755;DHT22;10036;47.812;9.274;2023-05-29T02:08:03;12.70;99.90
19755;DHT22;10036;47.812;9.274;2023-05-29T02:10:31;12.50;99.90
19755;DHT22;10036;47.812;9.274;2023-05-29T02:12:58;12.40;99.90
19755;DHT22;10036;47.812;9.274;2023-05-29T02:15:25;12.40;99.90
19755;DHT22;10036;47.812;9.274;2023-05-29T02:17:52;12.30;99.90
19755;DHT22;10036;47.812;9.274;2023-05-29T02:20:20;12.40;99.90
19755;DHT22;10036;47.812;9.274;2023-05-29T02:22:47;12.20;99.90
19755;DHT22;10036;47.812;9.274;2023-05-29T02:25:14;12.30;99.90
19755;DHT22;10036;47.812;9.274;2023-05-29T02:27:41;12.20;99.90
19755;DHT22;10036;47.812;9.274;2023-05-29T02:30:08;12.20;99.90
19755;DHT22;10036;47.812;9.274;2023-05-29T02:32:36;12.40;99.90
19755;DHT22;10036;47.812;9.274;2023-05-29T02:35:03;12.40;99.90
19755;DHT22;10036;47.812;9.274;2023-05-29T02:37:31;12.50;99.90
19755;DHT22;10036;47.812;9.274;2023-05-29T02:39:58;12.70;99.90
19755;DHT22;10036;47.812;9.274;2023-05-29T02:42:25;12.70;99.90
19755;DHT22;10036;47.812;9.274;2023-05-29T02:44:52;12.60;99.90
19755;DHT22;10036;47.812;9.274;2023-05-29T02:47:20;12.70;99.90
19755;DHT22;10036;47.812;9.274;2023-05-29T02:49:46;12.60;99.90
19755;DHT22;10036;47.812;9.274;2023-05-29T02:52:13;12.50;99.90
19755;DHT22;10036;47.812;9.274;2023-05-29T02:54:41;12.50;99.90
19755;DHT22;10036;47.812;9.274;2023-05-29T02:57:08;12.50;99.90
19755;DHT22;10036;47.812;9.274;2023-05-29T02:59:35;12.30;99.90
19755;DHT22;10036;47.812;9.274;2023-05-29T03:02:02;12.50;99.90
19755;DHT22;10036;47.812;9.274;2023-05-29T03:04:29;12.20;99.90
19755;DHT22;10036;47.812;9.274;2023-05-29T03:06:56;12.20;99.90
19755;DHT22;10036;47.812;9.274;2023-05-29T03:09:23;12.30;99.90
19755;DHT22;10036;47.812;9.274;2023-05-29T03:11:51;12.10;99.90
19755;DHT22;10036;47.812;9.274;2023-05-29T03:14:18;12.10;99.90
19755;DHT22;10036;47.812;9.274;2023-05-29T03:16:47;12.10;99.90
19755;DHT22;10036;47.812;9.274;2023-05-29T03:19:14;12.10;99.90
19755;DHT22;10036;47.812;9.274;2023-05-29T03:21:41;12.00;99.90
19755;DHT22;10036;47.812;9.274;2023-05-29T03:24:08;12.30;99.90
19755;DHT22;10036;47.812;9.274;2023-05-29T03:26:35;12.10;99.90
19755;DHT22;10036;47.812;9.274;2023-05-29T03:29:04;12.00;99.90
19755;DHT22;10036;47.812;9.274;2023-05-29T03:31:32;12.30;99.90
19755;DHT22;10036;47.812;9.274;2023-05-29T03:33:59;12.20;99.90
19755;DHT22;10036;47.812;9.274;2023-05-29T03:36:26;12.30;99.90
19755;DHT22;10036;47.812;9.274;2023-05-29T03:38:54;12.20;99.90
19755;DHT22;10036;47.812;9.274;2023-05-29T03:41:20;12.20;99.90
19755;DHT22;10036;47.812;9.274;2023-05-29T03:43:47;12.30;99.90
19755;DHT22;10036;47.812;9.274;2023-05-29T03:46:15;12.50;99.90
19755;DHT22;10036;47.812;9.274;2023-05-29T03:48:42;12.20;99.90
19755;DHT22;10036;47.812;9.274;2023-05-29T03:51:09;12.00;99.90
19755;DHT22;10036;47.812;9.274;2023-05-29T03:53:36;12.00;99.90
19755;DHT22;10036;47.812;9.274;2023-05-29T03:56:03;12.10;99.90
19755;DHT22;10036;47.812;9.274;2023-05-29T03:58:30;11.90;99.90
19755;DHT22;10036;47.812;9.274;2023-05-29T04:00:56;11.80;99.90
19755;DHT22;10036;47.812;9.274;2023-05-29T04:03:25;12.00;99.90
19755;DHT22;10036;47.812;9.274;2023-05-29T04:05:52;12.30;99.90
19755;DHT22;10036;47.812;9.274;2023-05-29T04:08:18;12.10;99.90
19755;DHT22;10036;47.812;9.274;2023-05-29T04:10:45;11.80;99.90
19755;DHT22;10036;47.812;9.274;2023-05-29T04:13:12;11.80;99.90
19755;DHT22;10036;47.812;9.274;2023-05-29T04:15:39;11.70;99.90
19755;DHT22;10036;47.812;9.274;2023-05-29T04:18:07;11.80;99.90
19755;DHT22;10036;47.812;9.274;2023-05-29T04:20:35;11.90;99.90
19755;DHT22;10036;47.812;9.274;2023-05-29T04:23:02;12.00;99.90
19755;DHT22;10036;47.812;9.274;2023-05-29T04:25:29;12.20;99.90
19755;DHT22;10036;47.812;9.274;2023-05-29T04:27:57;12.30;99.90
19755;DHT22;10036;47.812;9.274;2023-05-29T04:30:27;12.30;99.90
19755;DHT22;10036;47.812;9.274;2023-05-29T04:32:55;12.30;99.90
19755;DHT22;10036;47.812;9.274;2023-05-29T04:35:23;12.30;99.90
19755;DHT22;10036;47.812;9.274;2023-05-29T04:37:51;12.30;99.90
19755;DHT22;10036;47.812;9.274;2023-05-29T04:40:18;12.10;99.90
19755;DHT22;10036;47.812;9.274;2023-05-29T04:42:46;12.00;99.90
19755;DHT22;10036;47.812;9.274;2023-05-29T04:45:12;11.90;99.90
19755;DHT22;10036;47.812;9.274;2023-05-29T04:47:39;12.10;99.90
19755;DHT22;10036;47.812;9.274;2023-05-29T04:50:10;12.10;99.90
19755;DHT22;10036;47.812;9.274;2023-05-29T04:52:37;12.20;99.90
19755;DHT22;10036;47.812;9.274;2023-05-29T04:55:06;12.30;99.90
19755;DHT22;10036;47.812;9.274;2023-05-29T04:57:33;12.20;99.90
19755;DHT22;10036;47.812;9.274;2023-05-29T05:00:00;12.30;99.90
19755;DHT22;10036;47.812;9.274;2023-05-29T05:02:29;12.20;99.90
19755;DHT22;10036;47.812;9.274;2023-05-29T05:04:56;12.20;99.90
19755;DHT22;10036;47.812;9.274;2023-05-29T05:07:23;12.40;99.90
19755;DHT22;10036;47.812;9.274;2023-05-29T05:09:50;12.60;99.90
19755;DHT22;10036;47.812;9.274;2023-05-29T05:12:18;12.80;99.90
19755;DHT22;10036;47.812;9.274;2023-05-29T05:14:45;12.90;99.90
19755;DHT22;10036;47.812;9.274;2023-05-29T05:17:12;12.90;99.90
19755;DHT22;10036;47.812;9.274;2023-05-29T05:19:38;12.90;99.90
19755;DHT22;10036;47.812;9.274;2023-05-29T05:22:05;12.90;99.90
19755;DHT22;10036;47.812;9.274;2023-05-29T05:24:32;12.90;99.90
19755;DHT22;10036;47.812;9.274;2023-05-29T05:27:00;13.10;99.90
19755;DHT22;10036;47.812;9.274;2023-05-29T05:29:28;13.20;99.90
19755;DHT22;10036;47.812;9.274;2023-05-29T05:31:55;13.40;99.90
19755;DHT22;10036;47.812;9.274;2023-05-29T05:34:22;13.50;99.90
19755;DHT22;10036;47.812;9.274;2023-05-29T05:36:49;13.50;99.90
19755;DHT22;10036;47.812;9.274;2023-05-29T05:39:16;13.60;99.90
19755;DHT22;10036;47.812;9.274;2023-05-29T05:41:43;13.70;99.90
19755;DHT22;10036;47.812;9.274;2023-05-29T05:44:10;13.80;99.90
19755;DHT22;10036;47.812;9.274;2023-05-29T05:46:38;13.90;99.90
19755;DHT22;10036;47.812;9.274;2023-05-29T05:49:05;13.90;99.90
19755;DHT22;10036;47.812;9.274;2023-05-29T05:51:31;14.20;99.90
19755;DHT22;10036;47.812;9.274;2023-05-29T05:53:58;14.50;99.90
19755;DHT22;10036;47.812;9.274;2023-05-29T05:56:25;14.70;99.90
19755;DHT22;10036;47.812;9.274;2023-05-29T05:58:52;14.90;99.90
19755;DHT22;10036;47.812;9.274;2023-05-29T06:01:19;15.00;99.90
19755;DHT22;10036;47.812;9.274;2023-05-29T06:03:47;15.10;99.90
19755;DHT22;10036;47.812;9.274;2023-05-29T06:06:14;15.10;99.90
19755;DHT22;10036;47.812;9.274;2023-05-29T06:08:43;15.20;99.90
19755;DHT22;10036;47.812;9.274;2023-05-29T06:11:11;15.40;99.90
19755;DHT22;10036;47.812;9.274;2023-05-29T06:13:38;15.50;99.90
19755;DHT22;10036;47.812;9.274;2023-05-29T06:16:05;15.60;99.90
19755;DHT22;10036;47.812;9.274;2023-05-29T06:18:31;15.50;99.90
19755;DHT22;10036;47.812;9.274;2023-05-29T06:21:00;15.60;99.90
19755;DHT22;10036;47.812;9.274;2023-05-29T06:23:26;15.70;99.90
19755;DHT22;10036;47.812;9.274;2023-05-29T06:25:53;15.90;99.90
19755;DHT22;10036;47.812;9.274;2023-05-29T06:28:20;15.80;99.90
19755;DHT22;10036;47.812;9.274;2023-05-29T06:30:47;15.90;99.90
19755;DHT22;10036;47.812;9.274;2023-05-29T06:33:14;16.00;99.90
19755;DHT22;10036;47.812;9.274;2023-05-29T06:35:41;16.10;99.90
19755;DHT22;10036;47.812;9.274;2023-05-29T06:38:09;16.20;99.90
19755;DHT22;10036;47.812;9.274;2023-05-29T06:40:36;16.20;99.90
19755;DHT22;10036;47.812;9.274;2023-05-29T06:43:03;16.40;99.90
19755;DHT22;10036;47.812;9.274;2023-05-29T06:45:30;16.70;99.90
19755;DHT22;10036;47.812;9.274;2023-05-29T06:47:56;16.80;99.90
19755;DHT22;10036;47.812;9.274;2023-05-29T06:50:23;16.90;99.90
19755;DHT22;10036;47.812;9.274;2023-05-29T06:52:50;17.00;99.90
19755;DHT22;10036;47.812;9.274;2023-05-29T06:55:19;17.10;99.90
19755;DHT22;10036;47.812;9.274;2023-05-29T06:57:46;17.20;99.90
19755;DHT22;10036;47.812;9.274;2023-05-29T07:00:14;17.30;99.90
19755;DHT22;10036;47.812;9.274;2023-05-29T07:02:41;17.30;99.90
19755;DHT22;10036;47.812;9.274;2023-05-29T07:05:08;17.30;99.90
19755;DHT22;10036;47.812;9.274;2023-05-29T07:07:35;17.40;99.90
19755;DHT22;10036;47.812;9.274;2023-05-29T07:10:02;17.50;99.90
19755;DHT22;10036;47.812;9.274;2023-05-29T07:12:32;17.70;99.90
19755;DHT22;10036;47.812;9.274;2023-05-29T07:14:59;17.80;99.90
19755;DHT22;10036;47.812;9.274;2023-05-29T07:17:26;17.90;99.90
19755;DHT22;10036;47.812;9.274;2023-05-29T07:19:53;18.10;99.90
19755;DHT22;10036;47.812;9.274;2023-05-29T07:22:20;18.30;99.90
19755;DHT22;10036;47.812;9.274;2023-05-29T07:24:47;18.40;99.90
19755;DHT22;10036;47.812;9.274;2023-05-29T07:27:13;18.50;99.90
19755;DHT22;10036;47.812;9.274;2023-05-29T07:29:41;18.50;99.90
19755;DHT22;10036;47.812;9.274;2023-05-29T07:32:09;18.60;99.90
19755;DHT22;10036;47.812;9.274;2023-05-29T07:34:36;18.70;99.90
19755;DHT22;10036;47.812;9.274;2023-05-29T07:37:04;18.80;99.90
19755;DHT22;10036;47.812;9.274;2023-05-29T07:39:32;18.90;99.90
19755;DHT22;10036;47.812;9.274;2023-05-29T07:41:59;19.00;99.90
19755;DHT22;10036;47.812;9.274;2023-05-29T07:44:26;19.00;99.90
19755;DHT22;10036;47.812;9.274;2023-05-29T07:46:55;19.10;99.90
19755;DHT22;10036;47.812;9.274;2023-05-29T07:49:21;19.10;99.90
19755;DHT22;10036;47.812;9.274;2023-05-29T07:51:48;19.20;99.90
19755;DHT22;10036;47.812;9.274;2023-05-29T07:54:15;19.20;99.90
19755;DHT22;10036;47.812;9.274;2023-05-29T07:56:43;19.30;99.90
19755;DHT22;10036;47.812;9.274;2023-05-29T07:59:11;19.30;99.90
19755;DHT22;10036;47.812;9.274;2023-05-29T08:01:38;19.30;99.90
19755;DHT22;10036;47.812;9.274;2023-05-29T08:04:07;19.40;99.90
19755;DHT22;10036;47.812;9.274;2023-05-29T08:06:33;19.50;99.90
19755;DHT22;10036;47.812;9.274;2023-05-29T08:09:01;19.60;99.90
19755;DHT22;10036;47.812;9.274;2023-05-29T08:11:28;19.70;99.90
19755;DHT22;10036;47.812;9.274;2023-05-29T08:13:55;19.70;99.90
19755;DHT22;10036;47.812;9.274;2023-05-29T08:16:22;19.70;99.90
19755;DHT22;10036;47.812;9.274;2023-05-29T08:18:49;19.90;99.90
19755;DHT22;10036;47.812;9.274;2023-05-29T08:21:17;20.00;99.90
19755;DHT22;10036;47.812;9.274;2023-05-29T08:23:44;20.00;99.90
19755;DHT22;10036;47.812;9.274;2023-05-29T08:26:11;20.00;99.90
19755;DHT22;10036;47.812;9.274;2023-05-29T08:28:38;20.20;99.90
19755;DHT22;10036;47.812;9.274;2023-05-29T08:31:06;20.30;99.90
19755;DHT22;10036;47.812;9.274;2023-05-29T08:33:32;20.20;99.90
19755;DHT22;10036;47.812;9.274;2023-05-29T08:36:00;20.30;99.90
19755;DHT22;10036;47.812;9.274;2023-05-29T08:38:28;20.40;99.90
19755;DHT22;10036;47.812;9.274;2023-05-29T08:40:56;20.50;99.90
19755;DHT22;10036;47.812;9.274;2023-05-29T08:43:24;20.50;99.90
19755;DHT22;10036;47.812;9.274;2023-05-29T08:45:53;20.50;99.90
19755;DHT22;10036;47.812;9.274;2023-05-29T08:48:23;20.70;99.90
19755;DHT22;10036;47.812;9.274;2023-05-29T08:50:52;20.70;99.90
19755;DHT22;10036;47.812;9.274;2023-05-29T08:53:20;20.70;99.90
19755;DHT22;10036;47.812;9.274;2023-05-29T08:55:50;20.70;99.90
19755;DHT22;10036;47.812;9.274;2023-05-29T08:58:18;20.70;99.90
19755;DHT22;10036;47.812;9.274;2023-05-29T09:00:46;20.90;99.90
19755;DHT22;10036;47.812;9.274;2023-05-29T09:03:13;20.90;99.90
19755;DHT22;10036;47.812;9.274;2023-05-29T09:05:40;21.00;99.90
19755;DHT22;10036;47.812;9.274;2023-05-29T09:08:09;21.00;99.90
19755;DHT22;10036;47.812;9.274;2023-05-29T09:10:37;21.10;99.90
19755;DHT22;10036;47.812;9.274;2023-05-29T09:13:06;21.30;99.90
19755;DHT22;10036;47.812;9.274;2023-05-29T09:15:34;21.00;99.90
19755;DHT22;10036;47.812;9.274;2023-05-29T09:18:02;21.10;99.90
19755;DHT22;10036;47.812;9.274;2023-05-29T09:20:30;21.30;99.90
19755;DHT22;10036;47.812;9.274;2023-05-29T09:22:58;21.40;99.90
19755;DHT22;10036;47.812;9.274;2023-05-29T09:25:27;21.40;99.90
19755;DHT22;10036;47.812;9.274;2023-05-29T09:27:59;21.40;99.90
19755;DHT22;10036;47.812;9.274;2023-05-29T09:30:34;21.50;99.90
19755;DHT22;10036;47.812;9.274;2023-05-29T09:33:02;21.70;99.90
19755;DHT22;10036;47.812;9.274;2023-05-29T09:35:33;21.60;99.90
19755;DHT22;10036;47.812;9.274;2023-05-29T09:38:00;21.60;99.90
19755;DHT22;10036;47.812;9.274;2023-05-29T09:40:30;21.70;99.90
19755;DHT22;10036;47.812;9.274;2023-05-29T09:43:02;21.70;99.90
19755;DHT22;10036;47.812;9.274;2023-05-29T09:45:32;21.70;99.90
19755;DHT22;10036;47.812;9.274;2023-05-29T09:47:59;21.60;99.90
19755;DHT22;10036;47.812;9.274;2023-05-29T09:50:27;21.80;99.90
19755;DHT22;10036;47.812;9.274;2023-05-29T09:52:56;21.90;99.90
19755;DHT22;10036;47.812;9.274;2023-05-29T09:55:25;21.90;99.90
19755;DHT22;10036;47.812;9.274;2023-05-29T09:57:54;21.90;99.90
19755;DHT22;10036;47.812;9.274;2023-05-29T10:00:21;21.90;99.90
19755;DHT22;10036;47.812;9.274;2023-05-29T10:02:50;22.00;99.80
19755;DHT22;10036;47.812;9.274;2023-05-29T10:05:17;22.10;99.90
19755;DHT22;10036;47.812;9.274;2023-05-29T10:07:46;22.20;99.90
19755;DHT22;10036;47.812;9.274;2023-05-29T10:10:14;22.30;99.90
19755;DHT22;10036;47.812;9.274;2023-05-29T10:12:44;22.20;99.90
19755;DHT22;10036;47.812;9.274;2023-05-29T10:15:14;22.50;99.90
19755;DHT22;10036;47.812;9.274;2023-05-29T10:17:49;22.60;99.40
19755;DHT22;10036;47.812;9.274;2023-05-29T10:20:20;22.40;99.90
19755;DHT22;10036;47.812;9.274;2023-05-29T10:22:50;22.70;99.90
19755;DHT22;10036;47.812;9.274;2023-05-29T10:25:19;22.90;99.90
19755;DHT22;10036;47.812;9.274;2023-05-29T10:27:47;23.10;99.90
19755;DHT22;10036;47.812;9.274;2023-05-29T10:30:21;23.30;99.40
19755;DHT22;10036;47.812;9.274;2023-05-29T10:33:05;23.70;98.70
19755;DHT22;10036;47.812;9.274;2023-05-29T10:35:40;24.20;97.80
19755;DHT22;10036;47.812;9.274;2023-05-29T10:38:11;24.80;95.60
19755;DHT22;10036;47.812;9.274;2023-05-29T10:40:39;25.10;96.10
19755;DHT22;10036;47.812;9.274;2023-05-29T10:43:06;25.50;96.60
19755;DHT22;10036;47.812;9.274;2023-05-29T10:45:49;24.90;96.20
19755;DHT22;10036;47.812;9.274;2023-05-29T10:48:36;25.40;96.30
19755;DHT22;10036;47.812;9.274;2023-05-29T10:51:05;25.30;96.30
19755;DHT22;10036;47.812;9.274;2023-05-29T10:53:32;25.20;95.80
19755;DHT22;10036;47.812;9.274;2023-05-29T10:56:00;24.90;95.90
19755;DHT22;10036;47.812;9.274;2023-05-29T10:58:30;24.70;96.10
19755;DHT22;10036;47.812;9.274;2023-05-29T11:00:57;24.50;97.10
19755;DHT22;10036;47.812;9.274;2023-05-29T11:03:26;24.40;96.10
19755;DHT22;10036;47.812;9.274;2023-05-29T11:05:56;24.30;96.80
19755;DHT22;10036;47.812;9.274;2023-05-29T11:08:32;24.20;96.80
19755;DHT22;10036;47.812;9.274;2023-05-29T11:11:00;24.00;95.70
19755;DHT22;10036;47.812;9.274;2023-05-29T11:13:32;23.70;95.70
19755;DHT22;10036;47.812;9.274;2023-05-29T11:16:14;23.70;95.50
19755;DHT22;10036;47.812;9.274;2023-05-29T11:18:46;23.70;96.00
19755;DHT22;10036;47.812;9.274;2023-05-29T11:21:30;23.70;96.80
19755;DHT22;10036;47.812;9.274;2023-05-29T11:24:01;23.80;96.70
19755;DHT22;10036;47.812;9.274;2023-05-29T11:26:30;23.90;96.80
19755;DHT22;10036;47.812;9.274;2023-05-29T11:28:59;23.90;95.30
19755;DHT22;10036;47.812;9.274;2023-05-29T11:31:27;23.90;94.90
19755;DHT22;10036;47.812;9.274;2023-05-29T11:33:59;23.90;95.30
19755;DHT22;10036;47.812;9.274;2023-05-29T11:36:28;23.90;93.90
19755;DHT22;10036;47.812;9.274;2023-05-29T11:38:56;23.80;95.10
19755;DHT22;10036;47.812;9.274;2023-05-29T11:41:24;23.90;96.90
19755;DHT22;10036;47.812;9.274;2023-05-29T11:43:58;24.20;94.50
19755;DHT22;10036;47.812;9.274;2023-05-29T11:46:26;24.20;94.90
19755;DHT22;10036;47.812;9.274;2023-05-29T11:48:56;24.40;94.50
19755;DHT22;10036;47.812;9.274;2023-05-29T11:51:23;24.50;92.90
19755;DHT22;10036;47.812;9.274;2023-05-29T11:53:50;24.50;93.80
19755;DHT22;10036;47.812;9.274;2023-05-29T11:56:24;24.70;93.10
19755;DHT22;10036;47.812;9.274;2023-05-29T11:58:52;24.70;93.50
19755;DHT22;10036;47.812;9.274;2023-05-29T12:01:22;24.60;93.20
19755;DHT22;10036;47.812;9.274;2023-05-29T12:03:50;24.70;92.80
19755;DHT22;10036;47.812;9.274;2023-05-29T12:06:30;24.70;93.20
19755;DHT22;10036;47.812;9.274;2023-05-29T12:08:57;24.40;91.50
19755;DHT22;10036;47.812;9.274;2023-05-29T12:11:25;24.50;91.60
19755;DHT22;10036;47.812;9.274;2023-05-29T12:13:56;24.60;91.40
19755;DHT22;10036;47.812;9.274;2023-05-29T12:16:23;24.80;91.30
19755;DHT22;10036;47.812;9.274;2023-05-29T12:18:51;24.90;90.90
19755;DHT22;10036;47.812;9.274;2023-05-29T12:21:21;24.90;90.40
19755;DHT22;10036;47.812;9.274;2023-05-29T12:23:52;24.90;88.80
19755;DHT22;10036;47.812;9.274;2023-05-29T12:26:21;24.80;90.10
19755;DHT22;10036;47.812;9.274;2023-05-29T12:28:50;25.00;91.30
19755;DHT22;10036;47.812;9.274;2023-05-29T12:31:26;25.10;89.40
19755;DHT22;10036;47.812;9.274;2023-05-29T12:33:59;25.20;89.80
19755;DHT22;10036;47.812;9.274;2023-05-29T12:36:26;25.20;91.30
19755;DHT22;10036;47.812;9.274;2023-05-29T12:38:53;24.80;90.30
19755;DHT22;10036;47.812;9.274;2023-05-29T12:41:23;24.90;90.60
19755;DHT22;10036;47.812;9.274;2023-05-29T12:43:54;24.90;87.30
19755;DHT22;10036;47.812;9.274;2023-05-29T12:46:22;25.10;85.30
19755;DHT22;10036;47.812;9.274;2023-05-29T12:48:49;25.10;87.80
19755;DHT22;10036;47.812;9.274;2023-05-29T12:51:22;25.10;89.80
19755;DHT22;10036;47.812;9.274;2023-05-29T12:53:49;25.30;90.30
19755;DHT22;10036;47.812;9.274;2023-05-29T12:56:16;25.50;90.70
19755;DHT22;10036;47.812;9.274;2023-05-29T12:58:43;25.50;88.60
19755;DHT22;10036;47.812;9.274;2023-05-29T13:01:13;25.60;88.00
19755;DHT22;10036;47.812;9.274;2023-05-29T13:03:41;25.80;89.10
19755;DHT22;10036;47.812;9.274;2023-05-29T13:06:08;25.40;89.00
19755;DHT22;10036;47.812;9.274;2023-05-29T13:08:35;25.50;89.60
19755;DHT22;10036;47.812;9.274;2023-05-29T13:11:02;25.70;88.20
19755;DHT22;10036;47.812;9.274;2023-05-29T13:13:29;25.70;89.80
19755;DHT22;10036;47.812;9.274;2023-05-29T13:15:56;25.60;89.10
19755;DHT22;10036;47.812;9.274;2023-05-29T13:18:24;25.40;89.70
19755;DHT22;10036;47.812;9.274;2023-05-29T13:20:51;25.40;90.10
19755;DHT22;10036;47.812;9.274;2023-05-29T13:23:18;25.50;90.00
19755;DHT22;10036;47.812;9.274;2023-05-29T13:25:44;25.40;90.10
19755;DHT22;10036;47.812;9.274;2023-05-29T13:28:13;25.80;90.30
19755;DHT22;10036;47.812;9.274;2023-05-29T13:30:40;25.80;85.60
19755;DHT22;10036;47.812;9.274;2023-05-29T13:33:07;25.90;87.40
19755;DHT22;10036;47.812;9.274;2023-05-29T13:35:35;26.20;87.50
19755;DHT22;10036;47.812;9.274;2023-05-29T13:38:02;26.20;88.50
19755;DHT22;10036;47.812;9.274;2023-05-29T13:40:29;26.50;89.30
19755;DHT22;10036;47.812;9.274;2023-05-29T13:42:57;26.30;87.70
19755;DHT22;10036;47.812;9.274;2023-05-29T13:45:24;26.20;87.90
19755;DHT22;10036;47.812;9.274;2023-05-29T13:47:53;26.10;87.00
19755;DHT22;10036;47.812;9.274;2023-05-29T13:50:20;26.50;87.50
19755;DHT22;10036;47.812;9.274;2023-05-29T13:52:50;26.30;86.80
19755;DHT22;10036;47.812;9.274;2023-05-29T13:55:17;26.20;87.10
19755;DHT22;10036;47.812;9.274;2023-05-29T13:57:44;26.30;88.10
19755;DHT22;10036;47.812;9.274;2023-05-29T14:00:11;26.40;86.90
19755;DHT22;10036;47.812;9.274;2023-05-29T14:02:39;26.40;86.00
19755;DHT22;10036;47.812;9.274;2023-05-29T14:05:06;26.40;84.80
19755;DHT22;10036;47.812;9.274;2023-05-29T14:07:35;26.70;86.00
19755;DHT22;10036;47.812;9.274;2023-05-29T14:10:04;26.70;86.50
19755;DHT22;10036;47.812;9.274;2023-05-29T14:12:31;26.70;83.70
19755;DHT22;10036;47.812;9.274;2023-05-29T14:14:58;26.70;84.50
19755;DHT22;10036;47.812;9.274;2023-05-29T14:17:25;26.80;86.10
19755;DHT22;10036;47.812;9.274;2023-05-29T14:19:52;26.70;86.30
19755;DHT22;10036;47.812;9.274;2023-05-29T14:22:19;26.90;86.80
19755;DHT22;10036;47.812;9.274;2023-05-29T14:24:46;27.40;86.40
19755;DHT22;10036;47.812;9.274;2023-05-29T14:27:14;27.00;84.10
19755;DHT22;10036;47.812;9.274;2023-05-29T14:29:41;26.80;85.50
19755;DHT22;10036;47.812;9.274;2023-05-29T14:32:08;27.10;84.70
19755;DHT22;10036;47.812;9.274;2023-05-29T14:34:35;27.30;82.90
19755;DHT22;10036;47.812;9.274;2023-05-29T14:37:01;27.10;84.60
19755;DHT22;10036;47.812;9.274;2023-05-29T14:39:28;27.40;86.20
19755;DHT22;10036;47.812;9.274;2023-05-29T14:41:55;27.10;80.60
19755;DHT22;10036;47.812;9.274;2023-05-29T14:44:23;26.50;81.90
19755;DHT22;10036;47.812;9.274;2023-05-29T14:46:50;26.40;84.90
19755;DHT22;10036;47.812;9.274;2023-05-29T14:49:17;26.50;80.60
19755;DHT22;10036;47.812;9.274;2023-05-29T14:51:45;26.20;84.00
19755;DHT22;10036;47.812;9.274;2023-05-29T14:54:11;26.40;84.00
19755;DHT22;10036;47.812;9.274;2023-05-29T14:56:38;26.80;85.30
19755;DHT22;10036;47.812;9.274;2023-05-29T14:59:05;26.70;83.60
19755;DHT22;10036;47.812;9.274;2023-05-29T15:01:33;26.80;83.50
19755;DHT22;10036;47.812;9.274;2023-05-29T15:04:00;26.50;82.90
19755;DHT22;10036;47.812;9.274;2023-05-29T15:06:27;26.70;82.20
19755;DHT22;10036;47.812;9.274;2023-05-29T15:08:54;26.60;84.20
19755;DHT22;10036;47.812;9.274;2023-05-29T15:11:21;26.80;82.50
19755;DHT22;10036;47.812;9.274;2023-05-29T15:13:48;26.80;80.30
19755;DHT22;10036;47.812;9.274;2023-05-29T15:16:15;26.20;82.10
19755;DHT22;10036;47.812;9.274;2023-05-29T15:18:44;25.90;83.90
19755;DHT22;10036;47.812;9.274;2023-05-29T15:21:10;26.20;84.60
19755;DHT22;10036;47.812;9.274;2023-05-29T15:23:38;26.40;83.70
19755;DHT22;10036;47.812;9.274;2023-05-29T15:26:06;26.80;83.10
19755;DHT22;10036;47.812;9.274;2023-05-29T15:28:33;26.80;80.80
19755;DHT22;10036;47.812;9.274;2023-05-29T15:30:59;26.80;82.90
19755;DHT22;10036;47.812;9.274;2023-05-29T15:33:26;26.40;81.00
19755;DHT22;10036;47.812;9.274;2023-05-29T15:35:55;26.30;81.20